Flight Track Log - Related Links

Times and Time Zones

All times are in EDT time to prevent confusion due to time zone crossing. See the SKW5455 flight status page for this flight to view local times or setup timezone preferences in your user account.

Time Position Orientation Groundspeed Altitude Reporting Facility
EDT Latitude Longitude Course Direction KTS MPH feet Rate Location/Type
Sat 04:17:12 PM 44.8983 -91.3372 91° East 261 300 7,100  Level Minneapolis Center
Sat 04:18:15 PM 44.8328 -91.2708 144° Southeast 278 320 10,000 2,855 Climbing Minneapolis Center
Sat 04:19:00 PM 44.5919 -91.0447 136° Southeast  Level FlightAware Approximate
Sat 04:19:16 PM 44.7608 -91.1875 141° Southeast 317 365 13,000  Level Minneapolis Center
Sat 04:20:00 PM 44.5275 -90.9549 125° Southeast  Level FlightAware Approximate
Sat 04:20:17 PM 44.6936 -91.1044 139° Southeast 331 381 15,500  Level Minneapolis Center
Sat 04:21:00 PM 44.4787 -90.8794 135° Southeast  Level FlightAware Approximate
Sat 04:21:19 PM 44.6136 -91.0108 140° Southeast 359 413 17,800  Level Minneapolis Center
Sat 04:22:20 PM 44.5386 -90.9219 140° Southeast 362 417 20,100 2,244 Climbing Minneapolis Center
Sat 04:23:22 PM 44.4519 -90.8189 140° Southeast 372 428 22,400 1,951 Climbing Minneapolis Center
Sat 04:24:23 PM 44.3697 -90.7231 140° Southeast 382 440 24,100 1,561 Climbing Minneapolis Center
Sat 04:25:25 PM 44.2822 -90.6214 140° Southeast 387 445 25,600 1,268 Climbing Minneapolis Center
Sat 04:26:26 PM 44.2008 -90.5289 141° Southeast 394 453 26,700 683 Climbing Minneapolis Center
Sat 04:27:28 PM 44.1125 -90.4247 140° Southeast 411 473 27,000 146 Climbing Minneapolis Center
Sat 04:28:29 PM 44.0136 -90.3131 141° Southeast 447 514 27,000 -537 Level Minneapolis Center
Sat 04:29:31 PM 43.8956 -90.1778 140° Southeast 468 539 25,900 -1,258 Descending Minneapolis Center
Sat 04:30:33 PM 43.7925 -90.0617 141° Southeast 474 545 24,400 -1,415 Descending Minneapolis Center
Sat 04:31:34 PM 43.6908 -89.9461 141° Southeast 474 545 23,000 -800 Descending Minneapolis Center
Sat 04:32:18 PM 43.6219 -89.8725 142° Southeast 472 543 23,000  Level Chicago Center
Sat 04:33:19 PM 43.5264 -89.7636 140° Southeast 453 521 23,000 -98 Level Chicago Center
Sat 04:34:21 PM 43.4131 -89.6369 141° Southeast 451 519 22,800 -1,258 Descending Chicago Center
Sat 04:35:23 PM 43.3133 -89.5275 141° Southeast 457 526 20,400 -2,195 Descending Chicago Center
Sat 04:36:24 PM 43.2197 -89.4242 141° Southeast 439 505 18,300 -2,000 Descending Chicago Center
Sat 04:37:26 PM 43.1247 -89.3347 145° Southeast 419 482 16,300 -1,935 Descending Chicago Center
Sat 04:38:28 PM 43.0167 -89.2897 163° South 407 468 14,300 -1,610 Descending Chicago Center
Sat 04:39:29 PM 42.9142 -89.2494 164° South 389 448 13,000 -634 Descending Chicago Center
Sat 04:40:31 PM 42.7989 -89.2025 163° South 372 428 13,000  Level Chicago Center
Sat 04:41:33 PM 42.6975 -89.1628 164° South 378 435 13,000  Level Chicago Center
Sat 04:42:34 PM 42.6217 -89.0622 136° Southeast 391 450 13,000 -98 Level Chicago Center
Sat 04:43:36 PM 42.5661 -88.9325 120° Southeast 396 456 12,800 -976 Descending Chicago Center
Sat 04:44:37 PM 42.5131 -88.8142 121° Southeast 373 429 11,000 -1,366 Descending Chicago Center
Sat 04:45:39 PM 42.4647 -88.7042 121° Southeast 350 403 10,000 -484 Descending Chicago Center
Sat 04:46:41 PM 42.4067 -88.5731 121° Southeast 348 400 10,000  Level Chicago Center
Sat 04:47:42 PM 42.3619 -88.4597 118° Southeast 345 397 10,000  Level Chicago Center
Sat 04:48:44 PM 42.3125 -88.3406 119° Southeast 354 407 10,000  Level Chicago Center
Sat 04:49:45 PM 42.2508 -88.2378 129° Southeast 355 409 10,000 -49 Level Chicago Center
Sat 04:50:47 PM 42.1897 -88.1414 131° Southeast 343 395 9,900 -823 Descending Chicago Center
Sat 04:51:49 PM 42.1278 -88.0703 140° Southeast 302 348 8,300 -1,461 Descending Chicago Center
Sat 04:52:42 PM 42.1000 -87.9833 113° Southeast 305 351 7,100 -605 Descending Chicago TRACON
Sat 04:53:48 PM 42.0833 -87.8667 101° East 285 328 7,100 -238 Level Chicago TRACON
Sat 04:54:48 PM 42.0833 -87.7667 90° East 255 293 6,600 -1,200 Descending Chicago TRACON
Sat 04:55:48 PM 42.0667 -87.7000 109° East 245 282 4,700 -1,316 Descending Chicago TRACON
Sat 04:56:42 PM 42.0167 -87.7500 217° Southwest 191 220 4,100 -667 Descending Chicago TRACON

Login

Don't have an account? Register now (free) for customized features, flight alerts, and more!